Alba, Pennsylvania
Current Conditions -  °F | °C
As of 8:35 AM on Monday 24 Nov 2014 (Local Time) from KN38 Reporting Station
Overcast Overcast  
Wind Chill: 55°   Ceiling: 1500
Heat Index: 55°   Visibility: 10mi
Dew Point: 52°   Wind: 23mph
Humidity: 88%   Direction: 180°S
Pressure: 29.51"   Gusts: NA
Location:  41.71°N, 76.83°W
Report Text: KN38 241335Z AUTO 18020KT 10SM BKN015 OVC025 13/11 A2951 RMK AO2
Loading
Personal Weather Stations






























Interactive Weather Map New forecast layout! Learn more

10-Day Weather Forecast

Advertisements
Track Severe Weather on mobile